aviador You're here:

LFPV Decoded Metar

VILLACOUBLAY in FRANCE
Report Time2017-08-24 08:30:00
UTC Time2017-08-24 08:52:20
Flight Rules vfr VFR
WindVRB at 02 kt
Visibility9999 m
Phenomena:N/A
Clouds:Scattered 040 Hf
Scattered 180 Hf
Broken 210 Hf
Expected CloudBase > 1,600 ft AGL from Temp-Dew spread
Ceiling21,000 ft
Temp18°C (ISA +4)
Dew Point14°C (78% RH)
QNH1019 hPa
Density Alt1,089 ft
Elevation587 ft
Report Wrong Elevation
Raw Report
LFPV 240830Z AUTO VRB02KT 9999 SCT040 SCT180 BKN210 18/14 Q1019
NOSIG=

Extra information for LFPV:More info

Metar Taf Metar & Taf Last 4 Metars F.Rules Stats Wind Profile Meteogram Temp Stats Airport Information Weather charts Add Link Nearby VenuesMetar ALERT Operation Metar Decoded Social comments